Aviation Digital Data Service (ADDS)

Output produced by METARs form (0501 UTC 21 September 2017)
found at http://www.aviationweather.gov/adds/metars/
 
FSPP 210400Z 18009KT //// //// 27/23 Q1014
FSIA 210400Z 15012KT 9999 SCT017 28/23 Q1013 NOSIG
TAF FSIA 202303Z 2100/2124 12020KT 9999 SCT019 
     PROB30 
     TEMPO 2108/2112 -SHRA BKN016